< Cyclone 196324 1963 Season Cyclone 196326 >
Cyclone 196325 (unnamed)
General InformationTrack Information on Google Maps || ResourceGoogle EarthGE AnimationAtom FeedGeoJSON
Detalied Best Track (Time Zone = UTC)
Year Month Day Hour Lat. Long. Pressure (hPa) Wind (kt) Class Image Chart
1963 3 15 01 -9.9 101.0 1004 0 0 -- --
1963 3 15 04 -10.0 100.9 1004 0 0 -- --
1963 3 15 07 -10.2 100.8 1004 0 0 -- --
1963 3 15 10 -10.3 100.7 1004 0 0 -- --
1963 3 15 16 -10.6 100.4 1004 0 0 -- --
1963 3 15 19 -10.7 100.3 1003 0 0 -- --
1963 3 15 22 -10.8 100.1 1003 0 0 -- --
1963 3 16 01 -10.9 100.0 1003 0 0 -- --
1963 3 16 04 -11.1 99.8 1003 0 0 -- --
1963 3 16 07 -11.4 99.5 1003 0 0 -- --
1963 3 16 10 -11.6 99.2 1002 0 0 -- --
1963 3 16 16 -12.1 98.7 1002 0 0 -- --
1963 3 16 19 -12.4 98.5 1002 0 0 -- --
1963 3 16 22 -12.7 98.2 1002 0 0 -- --
1963 3 17 01 -12.9 98.0 1001 0 0 -- --
1963 3 17 04 -13.0 97.8 1000 0 0 -- --
1963 3 17 07 -13.2 97.5 1000 0 0 -- --
1963 3 17 10 -13.3 97.2 999 0 0 -- --
1963 3 17 16 -13.6 96.7 999 0 0 -- --
1963 3 17 19 -13.7 96.5 998 0 0 -- --
1963 3 17 22 -13.8 96.2 997 0 0 -- --
1963 3 18 01 -13.9 96.0 997 0 0 -- --
1963 3 18 04 -14.2 95.6 996 0 0 -- --
1963 3 18 07 -14.5 95.2 995 0 0 -- --
1963 3 18 10 -14.9 94.8 994 0 0 -- --
1963 3 18 16 -15.7 94.0 993 0 0 -- --
1963 3 18 19 -16.1 93.6 992 0 0 -- --
1963 3 18 22 -16.5 93.3 991 0 0 -- --
1963 3 19 01 -16.9 93.0 990 0 0 -- --
1963 3 19 04 -17.1 92.9 990 0 0 -- --
1963 3 19 07 -17.4 92.8 991 0 0 -- --
1963 3 19 10 -17.7 92.7 991 0 0 -- --
1963 3 19 16 -18.2 92.4 992 0 0 -- --
1963 3 20 07 -19.2 92.0 995 0 0 -- --
1963 3 20 16 -19.6 92.0 995 0 0 -- --
1963 3 21 07 -20.4 92.3 995 0 0 -- --
1963 3 21 16 -21.1 92.7 995 0 0 -- --
1963 3 21 19 -21.4 92.8 995 0 0 -- --
1963 3 21 22 -21.7 92.9 995 0 0 -- --
1963 3 22 01 -21.9 93.0 995 0 0 -- --
1963 3 22 04 -22.0 93.6 995 0 0 -- --
1963 3 22 07 -22.2 94.2 995 0 0 -- --
1963 3 22 10 -22.3 95.0 995 0 0 -- --
1963 3 22 16 -22.6 96.2 995 0 0 -- --
1963 3 22 19 -22.7 96.8 995 0 0 -- --
1963 3 22 22 -22.8 97.4 995 0 0 -- --
1963 3 23 01 -22.9 98.0 995 0 0 -- --
1963 3 23 04 -22.9 98.0 996 0 0 -- --
1963 3 23 07 -22.9 98.0 997 0 0 -- --
1963 3 23 10 -22.9 98.0 998 0 0 -- --
1963 3 23 16 -22.9 98.0 1000 0 0 -- --
1963 3 23 19 -22.9 98.0 1001 0 0 -- --
1963 3 23 22 -22.9 98.0 1002 0 0 -- --
1963 3 24 01 -22.9 98.0 1003 0 0 -- --
< Cyclone 196324 1963 Season Cyclone 196326 >

Help